sensor_id;sensor_type;location;lat;lon;timestamp;P1;durP1;ratioP1;P2;durP2;ratioP2
30127;SDS011;16942;53.196;6.592;2023-07-28T00:01:01;33.27;;;13.30;;
30127;SDS011;16942;53.196;6.592;2023-07-28T00:03:27;39.50;;;13.13;;
30127;SDS011;16942;53.196;6.592;2023-07-28T00:05:53;28.67;;;12.80;;
30127;SDS011;16942;53.196;6.592;2023-07-28T00:08:19;36.73;;;13.50;;
30127;SDS011;16942;53.196;6.592;2023-07-28T00:10:45;34.90;;;13.27;;
30127;SDS011;16942;53.196;6.592;2023-07-28T00:13:11;32.63;;;14.00;;
30127;SDS011;16942;53.196;6.592;2023-07-28T00:15:37;30.20;;;13.50;;
30127;SDS011;16942;53.196;6.592;2023-07-28T00:18:03;32.23;;;14.67;;
30127;SDS011;16942;53.196;6.592;2023-07-28T00:20:29;34.57;;;13.40;;
30127;SDS011;16942;53.196;6.592;2023-07-28T00:22:56;32.57;;;13.50;;
30127;SDS011;16942;53.196;6.592;2023-07-28T00:25:22;25.70;;;12.47;;
30127;SDS011;16942;53.196;6.592;2023-07-28T00:27:48;31.57;;;11.80;;
30127;SDS011;16942;53.196;6.592;2023-07-28T00:30:14;34.67;;;12.90;;
30127;SDS011;16942;53.196;6.592;2023-07-28T00:32:40;24.87;;;11.97;;
30127;SDS011;16942;53.196;6.592;2023-07-28T00:35:06;29.70;;;11.90;;
30127;SDS011;16942;53.196;6.592;2023-07-28T00:37:32;24.03;;;11.10;;
30127;SDS011;16942;53.196;6.592;2023-07-28T00:39:58;35.20;;;14.10;;
30127;SDS011;16942;53.196;6.592;2023-07-28T00:42:24;29.70;;;13.10;;
30127;SDS011;16942;53.196;6.592;2023-07-28T00:44:50;30.50;;;10.87;;
30127;SDS011;16942;53.196;6.592;2023-07-28T00:47:16;27.03;;;11.73;;
30127;SDS011;16942;53.196;6.592;2023-07-28T00:49:42;19.63;;;10.50;;
30127;SDS011;16942;53.196;6.592;2023-07-28T00:52:08;27.40;;;12.67;;
30127;SDS011;16942;53.196;6.592;2023-07-28T00:54:34;25.47;;;11.67;;
30127;SDS011;16942;53.196;6.592;2023-07-28T00:57:01;28.53;;;12.63;;
30127;SDS011;16942;53.196;6.592;2023-07-28T00:59:28;26.23;;;12.47;;
30127;SDS011;16942;53.196;6.592;2023-07-28T01:01:54;25.70;;;12.23;;
30127;SDS011;16942;53.196;6.592;2023-07-28T01:04:20;29.37;;;13.43;;
30127;SDS011;16942;53.196;6.592;2023-07-28T01:09:16;27.67;;;13.23;;
30127;SDS011;16942;53.196;6.592;2023-07-28T01:11:56;25.90;;;12.73;;
30127;SDS011;16942;53.196;6.592;2023-07-28T01:14:22;31.47;;;13.70;;
30127;SDS011;16942;53.196;6.592;2023-07-28T01:16:48;25.07;;;12.47;;
30127;SDS011;16942;53.196;6.592;2023-07-28T01:19:16;31.03;;;14.57;;
30127;SDS011;16942;53.196;6.592;2023-07-28T01:21:46;34.17;;;14.70;;
30127;SDS011;16942;53.196;6.592;2023-07-28T01:26:40;31.93;;;14.53;;
30127;SDS011;16942;53.196;6.592;2023-07-28T01:29:06;35.67;;;14.73;;
30127;SDS011;16942;53.196;6.592;2023-07-28T01:31:32;39.20;;;16.13;;
30127;SDS011;16942;53.196;6.592;2023-07-28T01:33:58;38.90;;;15.20;;
30127;SDS011;16942;53.196;6.592;2023-07-28T01:36:24;36.80;;;16.43;;
30127;SDS011;16942;53.196;6.592;2023-07-28T01:38:50;34.13;;;14.83;;
30127;SDS011;16942;53.196;6.592;2023-07-28T01:41:16;28.47;;;13.00;;
30127;SDS011;16942;53.196;6.592;2023-07-28T01:43:42;24.83;;;13.30;;
30127;SDS011;16942;53.196;6.592;2023-07-28T01:46:08;26.23;;;12.70;;
30127;SDS011;16942;53.196;6.592;2023-07-28T01:48:34;23.87;;;12.40;;
30127;SDS011;16942;53.196;6.592;2023-07-28T01:51:00;22.50;;;11.50;;
30127;SDS011;16942;53.196;6.592;2023-07-28T01:53:26;23.77;;;11.70;;
30127;SDS011;16942;53.196;6.592;2023-07-28T01:55:52;31.03;;;11.93;;
30127;SDS011;16942;53.196;6.592;2023-07-28T01:58:18;23.47;;;11.30;;
30127;SDS011;16942;53.196;6.592;2023-07-28T02:00:44;22.37;;;11.53;;
30127;SDS011;16942;53.196;6.592;2023-07-28T02:03:13;23.40;;;11.03;;
30127;SDS011;16942;53.196;6.592;2023-07-28T02:05:39;22.70;;;10.53;;
30127;SDS011;16942;53.196;6.592;2023-07-28T02:08:05;14.90;;;9.63;;
30127;SDS011;16942;53.196;6.592;2023-07-28T02:10:31;18.40;;;9.83;;
30127;SDS011;16942;53.196;6.592;2023-07-28T02:12:57;21.73;;;12.00;;
30127;SDS011;16942;53.196;6.592;2023-07-28T02:15:23;25.80;;;12.30;;
30127;SDS011;16942;53.196;6.592;2023-07-28T02:17:49;25.33;;;12.97;;
30127;SDS011;16942;53.196;6.592;2023-07-28T02:20:15;28.77;;;12.87;;
30127;SDS011;16942;53.196;6.592;2023-07-28T02:22:41;20.43;;;11.70;;
30127;SDS011;16942;53.196;6.592;2023-07-28T02:25:08;22.27;;;11.33;;
30127;SDS011;16942;53.196;6.592;2023-07-28T02:27:34;20.77;;;12.10;;
30127;SDS011;16942;53.196;6.592;2023-07-28T02:30:00;29.07;;;13.27;;
30127;SDS011;16942;53.196;6.592;2023-07-28T02:32:27;26.27;;;14.60;;
30127;SDS011;16942;53.196;6.592;2023-07-28T02:34:54;26.83;;;13.23;;
30127;SDS011;16942;53.196;6.592;2023-07-28T02:37:20;30.13;;;15.70;;
30127;SDS011;16942;53.196;6.592;2023-07-28T02:39:46;30.30;;;13.43;;
30127;SDS011;16942;53.196;6.592;2023-07-28T02:42:12;41.33;;;16.40;;
30127;SDS011;16942;53.196;6.592;2023-07-28T02:44:38;32.57;;;14.83;;
30127;SDS011;16942;53.196;6.592;2023-07-28T02:47:04;42.97;;;18.57;;
30127;SDS011;16942;53.196;6.592;2023-07-28T02:49:31;35.47;;;16.60;;
30127;SDS011;16942;53.196;6.592;2023-07-28T02:51:57;38.20;;;16.23;;
30127;SDS011;16942;53.196;6.592;2023-07-28T02:54:23;31.50;;;16.03;;
30127;SDS011;16942;53.196;6.592;2023-07-28T02:56:50;32.77;;;15.53;;
30127;SDS011;16942;53.196;6.592;2023-07-28T02:59:16;37.30;;;16.43;;
30127;SDS011;16942;53.196;6.592;2023-07-28T03:01:42;29.70;;;14.50;;
30127;SDS011;16942;53.196;6.592;2023-07-28T03:04:08;41.93;;;16.07;;
30127;SDS011;16942;53.196;6.592;2023-07-28T03:06:34;39.17;;;15.97;;
30127;SDS011;16942;53.196;6.592;2023-07-28T03:09:00;35.57;;;14.90;;
30127;SDS011;16942;53.196;6.592;2023-07-28T03:11:26;31.40;;;14.53;;
30127;SDS011;16942;53.196;6.592;2023-07-28T03:13:52;27.57;;;14.70;;
30127;SDS011;16942;53.196;6.592;2023-07-28T03:16:18;36.60;;;14.57;;
30127;SDS011;16942;53.196;6.592;2023-07-28T03:18:45;34.27;;;14.37;;
30127;SDS011;16942;53.196;6.592;2023-07-28T03:21:11;32.13;;;15.40;;
30127;SDS011;16942;53.196;6.592;2023-07-28T03:23:37;22.83;;;13.47;;
30127;SDS011;16942;53.196;6.592;2023-07-28T03:26:03;31.30;;;14.20;;
30127;SDS011;16942;53.196;6.592;2023-07-28T03:28:29;27.87;;;12.27;;
30127;SDS011;16942;53.196;6.592;2023-07-28T03:30:55;36.33;;;13.67;;
30127;SDS011;16942;53.196;6.592;2023-07-28T03:33:21;42.60;;;12.90;;
30127;SDS011;16942;53.196;6.592;2023-07-28T03:35:47;30.53;;;13.33;;
30127;SDS011;16942;53.196;6.592;2023-07-28T03:38:13;27.30;;;13.30;;
30127;SDS011;16942;53.196;6.592;2023-07-28T03:40:39;28.23;;;13.47;;
30127;SDS011;16942;53.196;6.592;2023-07-28T03:43:05;31.10;;;12.80;;
30127;SDS011;16942;53.196;6.592;2023-07-28T03:45:31;25.67;;;12.27;;
30127;SDS011;16942;53.196;6.592;2023-07-28T03:47:57;35.47;;;12.53;;
30127;SDS011;16942;53.196;6.592;2023-07-28T03:50:23;24.53;;;11.07;;
30127;SDS011;16942;53.196;6.592;2023-07-28T03:52:51;23.73;;;11.43;;
30127;SDS011;16942;53.196;6.592;2023-07-28T03:55:17;33.30;;;12.07;;
30127;SDS011;16942;53.196;6.592;2023-07-28T03:57:43;24.80;;;11.33;;
30127;SDS011;16942;53.196;6.592;2023-07-28T04:00:10;24.27;;;10.93;;
30127;SDS011;16942;53.196;6.592;2023-07-28T04:02:36;30.47;;;11.37;;
30127;SDS011;16942;53.196;6.592;2023-07-28T04:05:02;33.20;;;12.27;;
30127;SDS011;16942;53.196;6.592;2023-07-28T04:07:28;22.53;;;9.70;;
30127;SDS011;16942;53.196;6.592;2023-07-28T04:09:54;20.17;;;10.90;;
30127;SDS011;16942;53.196;6.592;2023-07-28T04:12:20;20.87;;;8.97;;
30127;SDS011;16942;53.196;6.592;2023-07-28T04:14:46;21.47;;;9.53;;
30127;SDS011;16942;53.196;6.592;2023-07-28T04:17:12;23.67;;;10.53;;
30127;SDS011;16942;53.196;6.592;2023-07-28T04:19:38;32.93;;;10.80;;
30127;SDS011;16942;53.196;6.592;2023-07-28T04:22:04;17.50;;;9.10;;
30127;SDS011;16942;53.196;6.592;2023-07-28T04:24:30;18.17;;;10.00;;
30127;SDS011;16942;53.196;6.592;2023-07-28T04:26:56;24.70;;;11.43;;
30127;SDS011;16942;53.196;6.592;2023-07-28T04:29:22;28.00;;;9.27;;
30127;SDS011;16942;53.196;6.592;2023-07-28T04:31:48;20.50;;;10.00;;
30127;SDS011;16942;53.196;6.592;2023-07-28T04:34:14;25.97;;;10.50;;
30127;SDS011;16942;53.196;6.592;2023-07-28T04:36:41;27.17;;;10.20;;
30127;SDS011;16942;53.196;6.592;2023-07-28T04:39:07;17.50;;;9.27;;
30127;SDS011;16942;53.196;6.592;2023-07-28T04:41:32;21.67;;;9.67;;
30127;SDS011;16942;53.196;6.592;2023-07-28T04:43:59;22.40;;;10.43;;
30127;SDS011;16942;53.196;6.592;2023-07-28T04:46:25;23.33;;;10.00;;
30127;SDS011;16942;53.196;6.592;2023-07-28T04:48:51;22.20;;;9.03;;
30127;SDS011;16942;53.196;6.592;2023-07-28T04:51:17;22.20;;;8.57;;
30127;SDS011;16942;53.196;6.592;2023-07-28T04:53:43;24.90;;;9.07;;
30127;SDS011;16942;53.196;6.592;2023-07-28T04:56:09;23.57;;;9.20;;
30127;SDS011;16942;53.196;6.592;2023-07-28T04:58:35;16.23;;;8.67;;
30127;SDS011;16942;53.196;6.592;2023-07-28T05:01:01;19.37;;;8.10;;
30127;SDS011;16942;53.196;6.592;2023-07-28T05:03:27;18.30;;;9.43;;
30127;SDS011;16942;53.196;6.592;2023-07-28T05:05:53;18.20;;;8.33;;
30127;SDS011;16942;53.196;6.592;2023-07-28T05:08:19;23.37;;;9.50;;
30127;SDS011;16942;53.196;6.592;2023-07-28T05:10:45;18.10;;;8.03;;
30127;SDS011;16942;53.196;6.592;2023-07-28T05:13:11;23.30;;;9.03;;
30127;SDS011;16942;53.196;6.592;2023-07-28T05:15:37;15.77;;;7.97;;
30127;SDS011;16942;53.196;6.592;2023-07-28T05:18:04;16.60;;;7.93;;
30127;SDS011;16942;53.196;6.592;2023-07-28T05:20:30;17.80;;;8.03;;
30127;SDS011;16942;53.196;6.592;2023-07-28T05:22:56;18.97;;;7.40;;
30127;SDS011;16942;53.196;6.592;2023-07-28T05:25:22;12.53;;;6.93;;
30127;SDS011;16942;53.196;6.592;2023-07-28T05:27:48;12.27;;;7.17;;
30127;SDS011;16942;53.196;6.592;2023-07-28T05:30:14;16.77;;;7.40;;
30127;SDS011;16942;53.196;6.592;2023-07-28T05:32:40;14.63;;;7.73;;
30127;SDS011;16942;53.196;6.592;2023-07-28T05:35:07;13.70;;;7.70;;
30127;SDS011;16942;53.196;6.592;2023-07-28T05:37:33;12.67;;;7.87;;
30127;SDS011;16942;53.196;6.592;2023-07-28T05:39:59;17.33;;;7.43;;
30127;SDS011;16942;53.196;6.592;2023-07-28T05:42:25;14.03;;;7.47;;
30127;SDS011;16942;53.196;6.592;2023-07-28T05:44:51;17.13;;;8.90;;
30127;SDS011;16942;53.196;6.592;2023-07-28T05:47:19;17.30;;;8.30;;
30127;SDS011;16942;53.196;6.592;2023-07-28T05:49:46;20.13;;;8.43;;
30127;SDS011;16942;53.196;6.592;2023-07-28T05:52:12;13.73;;;7.77;;
30127;SDS011;16942;53.196;6.592;2023-07-28T05:54:38;18.67;;;8.87;;
30127;SDS011;16942;53.196;6.592;2023-07-28T05:57:04;13.33;;;8.40;;
30127;SDS011;16942;53.196;6.592;2023-07-28T05:59:30;20.70;;;7.87;;
30127;SDS011;16942;53.196;6.592;2023-07-28T06:01:56;15.00;;;7.63;;
30127;SDS011;16942;53.196;6.592;2023-07-28T06:04:22;13.40;;;7.40;;
30127;SDS011;16942;53.196;6.592;2023-07-28T06:06:48;12.17;;;7.20;;
30127;SDS011;16942;53.196;6.592;2023-07-28T06:09:14;14.23;;;7.53;;
30127;SDS011;16942;53.196;6.592;2023-07-28T06:11:40;24.77;;;10.03;;
30127;SDS011;16942;53.196;6.592;2023-07-28T06:14:06;15.33;;;7.53;;
30127;SDS011;16942;53.196;6.592;2023-07-28T06:16:32;15.60;;;8.23;;
30127;SDS011;16942;53.196;6.592;2023-07-28T06:18:58;13.93;;;7.57;;
30127;SDS011;16942;53.196;6.592;2023-07-28T06:21:24;10.73;;;7.63;;
30127;SDS011;16942;53.196;6.592;2023-07-28T06:23:50;17.03;;;8.00;;
30127;SDS011;16942;53.196;6.592;2023-07-28T06:26:16;12.93;;;8.10;;
30127;SDS011;16942;53.196;6.592;2023-07-28T06:28:42;9.70;;;6.23;;
30127;SDS011;16942;53.196;6.592;2023-07-28T06:31:08;13.07;;;7.20;;
30127;SDS011;16942;53.196;6.592;2023-07-28T06:33:35;11.00;;;7.30;;
30127;SDS011;16942;53.196;6.592;2023-07-28T06:36:01;12.50;;;6.30;;
30127;SDS011;16942;53.196;6.592;2023-07-28T06:38:28;9.25;;;6.68;;
30127;SDS011;16942;53.196;6.592;2023-07-28T06:40:54;12.07;;;7.30;;
30127;SDS011;16942;53.196;6.592;2023-07-28T06:43:20;10.73;;;7.87;;
30127;SDS011;16942;53.196;6.592;2023-07-28T06:45:46;10.47;;;7.40;;
30127;SDS011;16942;53.196;6.592;2023-07-28T06:48:12;10.90;;;7.50;;
30127;SDS011;16942;53.196;6.592;2023-07-28T06:50:38;8.90;;;7.10;;
30127;SDS011;16942;53.196;6.592;2023-07-28T06:53:04;16.07;;;8.33;;
30127;SDS011;16942;53.196;6.592;2023-07-28T06:55:30;10.95;;;8.23;;
30127;SDS011;16942;53.196;6.592;2023-07-28T06:57:56;15.33;;;8.97;;
30127;SDS011;16942;53.196;6.592;2023-07-28T07:00:22;10.90;;;7.13;;
30127;SDS011;16942;53.196;6.592;2023-07-28T07:02:48;11.97;;;7.20;;
30127;SDS011;16942;53.196;6.592;2023-07-28T07:05:14;11.00;;;8.05;;
30127;SDS011;16942;53.196;6.592;2023-07-28T07:07:41;11.50;;;7.75;;
30127;SDS011;16942;53.196;6.592;2023-07-28T07:10:07;10.80;;;7.68;;
30127;SDS011;16942;53.196;6.592;2023-07-28T07:12:33;9.50;;;8.00;;
30127;SDS011;16942;53.196;6.592;2023-07-28T07:14:59;10.57;;;7.75;;
30127;SDS011;16942;53.196;6.592;2023-07-28T07:17:25;10.70;;;8.38;;
30127;SDS011;16942;53.196;6.592;2023-07-28T07:19:52;10.63;;;8.65;;
30127;SDS011;16942;53.196;6.592;2023-07-28T07:22:18;11.85;;;8.10;;
30127;SDS011;16942;53.196;6.592;2023-07-28T07:24:47;8.73;;;7.67;;
30127;SDS011;16942;53.196;6.592;2023-07-28T07:27:14;12.38;;;8.10;;
30127;SDS011;16942;53.196;6.592;2023-07-28T07:29:40;8.88;;;7.57;;
30127;SDS011;16942;53.196;6.592;2023-07-28T07:32:06;13.07;;;7.80;;
30127;SDS011;16942;53.196;6.592;2023-07-28T07:34:36;9.27;;;7.57;;
30127;SDS011;16942;53.196;6.592;2023-07-28T07:37:03;8.02;;;6.10;;
30127;SDS011;16942;53.196;6.592;2023-07-28T07:39:29;8.20;;;6.80;;
30127;SDS011;16942;53.196;6.592;2023-07-28T07:41:55;7.18;;;6.47;;
30127;SDS011;16942;53.196;6.592;2023-07-28T07:44:21;8.43;;;5.43;;
30127;SDS011;16942;53.196;6.592;2023-07-28T07:46:47;5.70;;;5.20;;
30127;SDS011;16942;53.196;6.592;2023-07-28T07:49:13;5.43;;;4.65;;
30127;SDS011;16942;53.196;6.592;2023-07-28T07:51:39;5.30;;;4.80;;
30127;SDS011;16942;53.196;6.592;2023-07-28T07:54:05;6.28;;;5.30;;
30127;SDS011;16942;53.196;6.592;2023-07-28T07:56:32;9.88;;;5.72;;
30127;SDS011;16942;53.196;6.592;2023-07-28T07:58:58;6.10;;;5.40;;
30127;SDS011;16942;53.196;6.592;2023-07-28T08:01:27;6.00;;;5.40;;
30127;SDS011;16942;53.196;6.592;2023-07-28T08:03:53;9.18;;;6.15;;
30127;SDS011;16942;53.196;6.592;2023-07-28T08:06:22;6.40;;;5.25;;
30127;SDS011;16942;53.196;6.592;2023-07-28T08:08:48;7.75;;;5.30;;
30127;SDS011;16942;53.196;6.592;2023-07-28T08:11:15;6.45;;;4.55;;
30127;SDS011;16942;53.196;6.592;2023-07-28T08:13:41;5.30;;;4.78;;
30127;SDS011;16942;53.196;6.592;2023-07-28T08:16:07;5.20;;;4.80;;
30127;SDS011;16942;53.196;6.592;2023-07-28T08:18:33;5.60;;;5.03;;
30127;SDS011;16942;53.196;6.592;2023-07-28T08:21:00;7.30;;;5.07;;
30127;SDS011;16942;53.196;6.592;2023-07-28T08:23:26;6.85;;;5.28;;
30127;SDS011;16942;53.196;6.592;2023-07-28T08:25:51;6.28;;;4.30;;
30127;SDS011;16942;53.196;6.592;2023-07-28T08:28:18;6.90;;;5.28;;
30127;SDS011;16942;53.196;6.592;2023-07-28T08:30:44;8.38;;;5.22;;
30127;SDS011;16942;53.196;6.592;2023-07-28T08:33:10;7.13;;;5.05;;
30127;SDS011;16942;53.196;6.592;2023-07-28T08:35:36;7.43;;;5.32;;
30127;SDS011;16942;53.196;6.592;2023-07-28T08:38:02;6.15;;;4.82;;
30127;SDS011;16942;53.196;6.592;2023-07-28T08:40:28;6.45;;;4.80;;
30127;SDS011;16942;53.196;6.592;2023-07-28T08:42:54;4.97;;;4.47;;
30127;SDS011;16942;53.196;6.592;2023-07-28T08:45:20;4.60;;;4.07;;
30127;SDS011;16942;53.196;6.592;2023-07-28T08:47:46;4.95;;;3.78;;
30127;SDS011;16942;53.196;6.592;2023-07-28T08:50:12;3.92;;;3.63;;
30127;SDS011;16942;53.196;6.592;2023-07-28T08:52:38;5.47;;;3.70;;
30127;SDS011;16942;53.196;6.592;2023-07-28T08:55:04;4.07;;;3.70;;
30127;SDS011;16942;53.196;6.592;2023-07-28T08:57:31;4.68;;;4.07;;
30127;SDS011;16942;53.196;6.592;2023-07-28T08:59:57;4.70;;;4.32;;
30127;SDS011;16942;53.196;6.592;2023-07-28T09:02:23;7.55;;;4.93;;
30127;SDS011;16942;53.196;6.592;2023-07-28T09:04:50;5.57;;;4.97;;
30127;SDS011;16942;53.196;6.592;2023-07-28T09:07:16;5.65;;;4.25;;
30127;SDS011;16942;53.196;6.592;2023-07-28T09:09:42;4.43;;;4.03;;
30127;SDS011;16942;53.196;6.592;2023-07-28T09:12:08;4.80;;;4.03;;
30127;SDS011;16942;53.196;6.592;2023-07-28T09:14:36;4.53;;;3.75;;
30127;SDS011;16942;53.196;6.592;2023-07-28T09:17:05;5.90;;;3.60;;
30127;SDS011;16942;53.196;6.592;2023-07-28T09:19:32;5.53;;;3.95;;
30127;SDS011;16942;53.196;6.592;2023-07-28T09:21:59;4.10;;;3.70;;
30127;SDS011;16942;53.196;6.592;2023-07-28T09:24:31;4.43;;;3.80;;
30127;SDS011;16942;53.196;6.592;2023-07-28T09:26:57;4.72;;;3.90;;
30127;SDS011;16942;53.196;6.592;2023-07-28T09:29:23;7.88;;;4.43;;
30127;SDS011;16942;53.196;6.592;2023-07-28T09:31:50;4.57;;;3.50;;
30127;SDS011;16942;53.196;6.592;2023-07-28T09:34:26;4.50;;;3.80;;
30127;SDS011;16942;53.196;6.592;2023-07-28T09:36:53;4.93;;;3.70;;
30127;SDS011;16942;53.196;6.592;2023-07-28T09:39:19;3.80;;;3.40;;
30127;SDS011;16942;53.196;6.592;2023-07-28T09:41:46;4.68;;;4.07;;
30127;SDS011;16942;53.196;6.592;2023-07-28T09:44:12;3.75;;;3.45;;
30127;SDS011;16942;53.196;6.592;2023-07-28T09:46:47;3.55;;;3.25;;
30127;SDS011;16942;53.196;6.592;2023-07-28T09:49:20;3.50;;;3.20;;
30127;SDS011;16942;53.196;6.592;2023-07-28T09:51:47;3.67;;;3.10;;
30127;SDS011;16942;53.196;6.592;2023-07-28T09:54:20;3.20;;;2.92;;
30127;SDS011;16942;53.196;6.592;2023-07-28T09:56:50;3.88;;;2.92;;
30127;SDS011;16942;53.196;6.592;2023-07-28T09:59:16;5.07;;;3.50;;
30127;SDS011;16942;53.196;6.592;2023-07-28T10:01:43;4.88;;;2.80;;
30127;SDS011;16942;53.196;6.592;2023-07-28T10:04:10;7.28;;;2.88;;
30127;SDS011;16942;53.196;6.592;2023-07-28T10:06:36;3.13;;;2.55;;
30127;SDS011;16942;53.196;6.592;2023-07-28T10:09:03;4.63;;;3.35;;
30127;SDS011;16942;53.196;6.592;2023-07-28T10:11:30;3.78;;;3.47;;
30127;SDS011;16942;53.196;6.592;2023-07-28T10:13:57;5.20;;;3.90;;
30127;SDS011;16942;53.196;6.592;2023-07-28T10:16:29;5.75;;;4.00;;
30127;SDS011;16942;53.196;6.592;2023-07-28T10:18:56;3.97;;;3.58;;
30127;SDS011;16942;53.196;6.592;2023-07-28T10:21:24;5.75;;;3.53;;
30127;SDS011;16942;53.196;6.592;2023-07-28T10:23:55;7.57;;;3.40;;
30127;SDS011;16942;53.196;6.592;2023-07-28T10:26:39;4.07;;;3.67;;
30127;SDS011;16942;53.196;6.592;2023-07-28T10:29:10;4.50;;;4.10;;
30127;SDS011;16942;53.196;6.592;2023-07-28T10:31:36;3.97;;;3.17;;
30127;SDS011;16942;53.196;6.592;2023-07-28T10:34:02;3.75;;;3.00;;
30127;SDS011;16942;53.196;6.592;2023-07-28T10:39:02;4.47;;;3.55;;
30127;SDS011;16942;53.196;6.592;2023-07-28T10:41:37;4.55;;;2.75;;
30127;SDS011;16942;53.196;6.592;2023-07-28T10:44:03;3.47;;;3.17;;
30127;SDS011;16942;53.196;6.592;2023-07-28T10:46:30;2.92;;;2.72;;
30127;SDS011;16942;53.196;6.592;2023-07-28T10:48:57;5.00;;;2.22;;
30127;SDS011;16942;53.196;6.592;2023-07-28T10:51:30;7.00;;;2.47;;
30127;SDS011;16942;53.196;6.592;2023-07-28T10:53:59;3.03;;;2.10;;
30127;SDS011;16942;53.196;6.592;2023-07-28T10:56:25;6.72;;;2.58;;
30127;SDS011;16942;53.196;6.592;2023-07-28T10:59:02;2.97;;;2.38;;
30127;SDS011;16942;53.196;6.592;2023-07-28T11:04:05;3.25;;;1.83;;
30127;SDS011;16942;53.196;6.592;2023-07-28T11:06:31;2.50;;;2.17;;
30127;SDS011;16942;53.196;6.592;2023-07-28T11:08:57;2.70;;;2.13;;
30127;SDS011;16942;53.196;6.592;2023-07-28T11:11:24;4.10;;;2.22;;
30127;SDS011;16942;53.196;6.592;2023-07-28T11:13:50;2.95;;;1.77;;
30127;SDS011;16942;53.196;6.592;2023-07-28T11:16:16;2.58;;;1.80;;
30127;SDS011;16942;53.196;6.592;2023-07-28T11:18:42;3.25;;;2.05;;
30127;SDS011;16942;53.196;6.592;2023-07-28T11:21:08;2.47;;;2.15;;
30127;SDS011;16942;53.196;6.592;2023-07-28T11:23:34;2.88;;;1.77;;
30127;SDS011;16942;53.196;6.592;2023-07-28T11:26:00;2.67;;;1.90;;
30127;SDS011;16942;53.196;6.592;2023-07-28T11:28:26;5.00;;;1.92;;
30127;SDS011;16942;53.196;6.592;2023-07-28T11:30:53;3.58;;;1.90;;
30127;SDS011;16942;53.196;6.592;2023-07-28T11:33:19;2.45;;;1.67;;
30127;SDS011;16942;53.196;6.592;2023-07-28T11:35:45;2.20;;;2.00;;
30127;SDS011;16942;53.196;6.592;2023-07-28T11:38:12;2.22;;;1.50;;
30127;SDS011;16942;53.196;6.592;2023-07-28T11:40:40;1.75;;;1.48;;
30127;SDS011;16942;53.196;6.592;2023-07-28T11:43:07;2.78;;;1.83;;
30127;SDS011;16942;53.196;6.592;2023-07-28T11:45:33;2.42;;;1.90;;
30127;SDS011;16942;53.196;6.592;2023-07-28T11:50:29;2.92;;;1.58;;
30127;SDS011;16942;53.196;6.592;2023-07-28T11:52:57;2.65;;;1.83;;
30127;SDS011;16942;53.196;6.592;2023-07-28T11:55:23;3.33;;;1.70;;
30127;SDS011;16942;53.196;6.592;2023-07-28T11:57:50;5.07;;;2.22;;
30127;SDS011;16942;53.196;6.592;2023-07-28T12:00:17;3.45;;;2.08;;
30127;SDS011;16942;53.196;6.592;2023-07-28T12:02:43;2.67;;;2.10;;
30127;SDS011;16942;53.196;6.592;2023-07-28T12:05:14;2.53;;;1.85;;
30127;SDS011;16942;53.196;6.592;2023-07-28T12:07:40;3.88;;;2.00;;
30127;SDS011;16942;53.196;6.592;2023-07-28T12:10:06;3.38;;;2.00;;
30127;SDS011;16942;53.196;6.592;2023-07-28T12:12:46;3.92;;;1.75;;
30127;SDS011;16942;53.196;6.592;2023-07-28T12:15:23;1.88;;;1.60;;
30127;SDS011;16942;53.196;6.592;2023-07-28T12:18:05;3.22;;;1.65;;
30127;SDS011;16942;53.196;6.592;2023-07-28T12:20:34;2.30;;;1.67;;
30127;SDS011;16942;53.196;6.592;2023-07-28T12:23:00;4.20;;;1.67;;
30127;SDS011;16942;53.196;6.592;2023-07-28T12:25:26;3.63;;;1.38;;
30127;SDS011;16942;53.196;6.592;2023-07-28T12:27:52;3.38;;;1.50;;
30127;SDS011;16942;53.196;6.592;2023-07-28T12:30:18;1.95;;;1.40;;
30127;SDS011;16942;53.196;6.592;2023-07-28T12:32:44;2.00;;;1.35;;
30127;SDS011;16942;53.196;6.592;2023-07-28T12:35:11;4.20;;;2.22;;
30127;SDS011;16942;53.196;6.592;2023-07-28T12:37:37;4.20;;;1.52;;
30127;SDS011;16942;53.196;6.592;2023-07-28T12:40:03;1.70;;;1.60;;
30127;SDS011;16942;53.196;6.592;2023-07-28T12:42:31;2.85;;;1.52;;
30127;SDS011;16942;53.196;6.592;2023-07-28T12:44:57;2.72;;;1.45;;
30127;SDS011;16942;53.196;6.592;2023-07-28T12:47:23;1.40;;;1.30;;
30127;SDS011;16942;53.196;6.592;2023-07-28T12:49:49;1.50;;;1.40;;
30127;SDS011;16942;53.196;6.592;2023-07-28T12:52:15;1.50;;;1.40;;
30127;SDS011;16942;53.196;6.592;2023-07-28T12:54:41;1.80;;;1.70;;
30127;SDS011;16942;53.196;6.592;2023-07-28T12:57:08;1.60;;;1.50;;
30127;SDS011;16942;53.196;6.592;2023-07-28T12:59:35;1.73;;;1.60;;
30127;SDS011;16942;53.196;6.592;2023-07-28T13:02:02;2.47;;;1.48;;
30127;SDS011;16942;53.196;6.592;2023-07-28T13:04:28;3.42;;;1.65;;
30127;SDS011;16942;53.196;6.592;2023-07-28T13:06:54;3.03;;;1.52;;
30127;SDS011;16942;53.196;6.592;2023-07-28T13:09:20;1.50;;;1.40;;
30127;SDS011;16942;53.196;6.592;2023-07-28T13:11:46;1.65;;;1.55;;
30127;SDS011;16942;53.196;6.592;2023-07-28T13:14:12;2.03;;;1.55;;
30127;SDS011;16942;53.196;6.592;2023-07-28T13:16:38;1.50;;;1.40;;
30127;SDS011;16942;53.196;6.592;2023-07-28T13:19:04;2.67;;;1.45;;
30127;SDS011;16942;53.196;6.592;2023-07-28T13:21:30;1.83;;;1.40;;
30127;SDS011;16942;53.196;6.592;2023-07-28T13:23:56;1.70;;;1.40;;
30127;SDS011;16942;53.196;6.592;2023-07-28T13:26:23;2.72;;;2.00;;
30127;SDS011;16942;53.196;6.592;2023-07-28T13:28:50;3.88;;;1.80;;
30127;SDS011;16942;53.196;6.592;2023-07-28T13:31:16;1.65;;;1.52;;
30127;SDS011;16942;53.196;6.592;2023-07-28T13:33:42;2.47;;;1.50;;
30127;SDS011;16942;53.196;6.592;2023-07-28T13:36:08;1.88;;;1.77;;
30127;SDS011;16942;53.196;6.592;2023-07-28T13:38:34;3.70;;;1.65;;
30127;SDS011;16942;53.196;6.592;2023-07-28T13:41:03;2.47;;;1.60;;
30127;SDS011;16942;53.196;6.592;2023-07-28T13:43:29;2.53;;;1.70;;
30127;SDS011;16942;53.196;6.592;2023-07-28T13:45:55;2.17;;;1.80;;
30127;SDS011;16942;53.196;6.592;2023-07-28T13:48:21;2.17;;;1.98;;
30127;SDS011;16942;53.196;6.592;2023-07-28T13:50:47;4.82;;;2.10;;
30127;SDS011;16942;53.196;6.592;2023-07-28T13:53:13;3.38;;;1.73;;
30127;SDS011;16942;53.196;6.592;2023-07-28T13:55:39;2.20;;;1.88;;
30127;SDS011;16942;53.196;6.592;2023-07-28T13:58:05;2.25;;;2.05;;
30127;SDS011;16942;53.196;6.592;2023-07-28T14:00:32;4.00;;;1.80;;
30127;SDS011;16942;53.196;6.592;2023-07-28T14:02:58;1.80;;;1.70;;
30127;SDS011;16942;53.196;6.592;2023-07-28T14:05:24;4.93;;;2.10;;
30127;SDS011;16942;53.196;6.592;2023-07-28T14:07:50;2.08;;;1.88;;
30127;SDS011;16942;53.196;6.592;2023-07-28T14:10:16;3.15;;;2.08;;
30127;SDS011;16942;53.196;6.592;2023-07-28T14:12:42;4.70;;;2.33;;
30127;SDS011;16942;53.196;6.592;2023-07-28T14:15:08;4.10;;;2.63;;
30127;SDS011;16942;53.196;6.592;2023-07-28T14:17:34;2.53;;;2.00;;
30127;SDS011;16942;53.196;6.592;2023-07-28T14:20:00;3.47;;;2.30;;
30127;SDS011;16942;53.196;6.592;2023-07-28T14:22:26;3.08;;;2.03;;
30127;SDS011;16942;53.196;6.592;2023-07-28T14:24:52;2.15;;;1.80;;
30127;SDS011;16942;53.196;6.592;2023-07-28T14:27:18;4.72;;;2.15;;
30127;SDS011;16942;53.196;6.592;2023-07-28T14:29:47;2.45;;;1.83;;
30127;SDS011;16942;53.196;6.592;2023-07-28T14:32:13;2.88;;;2.15;;
30127;SDS011;16942;53.196;6.592;2023-07-28T14:34:39;5.70;;;2.22;;
30127;SDS011;16942;53.196;6.592;2023-07-28T14:37:05;3.22;;;1.80;;
30127;SDS011;16942;53.196;6.592;2023-07-28T14:39:31;2.20;;;2.10;;
30127;SDS011;16942;53.196;6.592;2023-07-28T14:42:00;2.67;;;2.47;;
30127;SDS011;16942;53.196;6.592;2023-07-28T14:44:26;4.72;;;2.30;;
30127;SDS011;16942;53.196;6.592;2023-07-28T14:46:52;3.13;;;2.30;;